Time;durP1;ratioP1;P1;durP2;ratioP2;P2;SDS_P1;SDS_P2;PMS_P1;PMS_P2;Temp;Humidity;BMP_temperature;BMP_pressure;BME280_temperature;BME280_humidity;BME280_pressure;Samples;Min_cycle;Max_cycle;Signal;HPM_P1;HPM_P2
2022/11/15 00:01:09;;;;;;;5.63;3.85;;;3.00;99.90;;;;;;5024386;28;20033;-30
2022/11/15 00:03:35;;;;;;;3.63;3.25;;;3.00;99.90;;;;;;5025089;28;20029;-30
2022/11/15 00:06:03;;;;;;;7.07;4.93;;;2.70;99.90;;;;;;5005361;28;20546;-29
2022/11/15 00:08:34;;;;;;;8.35;5.05;;;2.70;99.90;;;;;;5009545;28;20434;-29
2022/11/15 00:11:02;;;;;;;6.00;4.90;;;2.80;99.90;;;;;;5011530;28;20083;-28
2022/11/15 00:13:29;;;;;;;5.32;3.92;;;2.90;99.90;;;;;;5028216;28;20195;-31
2022/11/15 00:16:01;;;;;;;7.10;4.65;;;3.00;99.90;;;;;;5012782;28;20121;-29
2022/11/15 00:18:28;;;;;;;6.43;4.47;;;3.00;99.90;;;;;;5024219;28;20029;-30
2022/11/15 00:21:05;;;;;;;9.00;3.67;;;2.80;99.90;;;;;;5025999;28;20026;-29
2022/11/15 00:23:35;;;;;;;9.70;5.32;;;2.70;99.90;;;;;;5029191;28;20033;-29
2022/11/15 00:26:01;;;;;;;6.30;4.88;;;2.70;99.90;;;;;;5009292;28;20055;-30
2022/11/15 00:28:27;;;;;;;5.95;4.43;;;2.80;99.90;;;;;;5009639;28;20029;-31
2022/11/15 00:30:53;;;;;;;8.10;4.35;;;2.90;99.90;;;;;;5008761;28;20048;-32
2022/11/15 00:33:19;;;;;;;6.65;4.22;;;3.00;99.90;;;;;;5029595;28;20030;-29
2022/11/15 00:35:53;;;;;;;6.35;5.30;;;3.00;99.90;;;;;;5009656;28;20483;-29
2022/11/15 00:38:19;;;;;;;6.68;3.97;;;3.10;99.90;;;;;;5023836;28;20022;-28
2022/11/15 00:40:46;;;;;;;6.95;4.18;;;3.10;99.90;;;;;;5008674;28;20029;-29
2022/11/15 00:43:12;;;;;;;6.32;4.40;;;3.20;99.90;;;;;;5026493;28;20041;-30
2022/11/15 00:45:39;;;;;;;6.35;4.18;;;3.20;99.90;;;;;;5011075;28;20490;-35
2022/11/15 00:48:05;;;;;;;12.70;4.20;;;3.30;99.90;;;;;;5009140;28;20121;-31
2022/11/15 00:50:31;;;;;;;7.47;4.68;;;3.30;99.90;;;;;;5015384;28;20510;-30
2022/11/15 00:53:01;;;;;;;5.53;3.78;;;3.30;99.90;;;;;;5013850;28;20386;-29
2022/11/15 00:55:27;;;;;;;7.50;4.28;;;3.30;99.90;;;;;;5026817;28;20032;-29
2022/11/15 00:57:54;;;;;;;6.85;4.80;;;3.10;99.90;;;;;;5013041;28;20030;-30
2022/11/15 01:00:21;;;;;;;7.07;4.32;;;2.90;99.90;;;;;;5024132;28;20450;-29
2022/11/15 01:02:47;;;;;;;6.22;3.90;;;2.90;99.90;;;;;;5025781;28;20038;-28
2022/11/15 01:05:15;;;;;;;6.95;4.55;;;2.90;99.90;;;;;;5011907;28;20086;-30
2022/11/15 01:07:44;;;;;;;6.22;5.18;;;2.90;99.90;;;;;;5018538;28;20057;-30
2022/11/15 01:10:10;;;;;;;7.22;4.47;;;2.90;99.90;;;;;;5012098;28;20050;-30
2022/11/15 01:12:37;;;;;;;6.97;5.28;;;2.90;99.90;;;;;;5017928;28;20021;-34
2022/11/15 01:15:04;;;;;;;11.90;5.20;;;3.00;99.90;;;;;;5011395;28;20026;-30
2022/11/15 01:17:31;;;;;;;11.65;7.18;;;3.10;99.90;;;;;;5020339;28;20489;-29
2022/11/15 01:19:58;;;;;;;13.20;6.35;;;3.10;99.90;;;;;;5027163;28;20060;-29
2022/11/15 01:22:27;;;;;;;16.50;6.90;;;3.00;99.90;;;;;;5028260;28;20450;-29
2022/11/15 01:24:53;;;;;;;7.22;4.82;;;3.10;99.90;;;;;;5027535;28;20155;-29
2022/11/15 01:27:22;;;;;;;12.65;5.80;;;2.90;99.90;;;;;;5013384;28;20129;-29
2022/11/15 01:29:48;;;;;;;9.50;5.70;;;2.90;99.90;;;;;;5029056;28;20083;-30
2022/11/15 01:32:19;;;;;;;12.43;5.18;;;2.90;99.90;;;;;;5008592;28;20490;-30
2022/11/15 01:34:46;;;;;;;5.82;3.40;;;3.00;99.90;;;;;;5013545;28;20017;-31
2022/11/15 01:37:12;;;;;;;8.95;4.35;;;2.90;99.90;;;;;;5014395;28;20029;-28
2022/11/15 01:39:38;;;;;;;8.50;5.25;;;2.80;99.90;;;;;;5013295;28;20136;-33
2022/11/15 01:42:05;;;;;;;8.40;5.15;;;2.80;99.90;;;;;;5012073;28;20025;-30
2022/11/15 01:44:34;;;;;;;8.50;5.00;;;2.80;99.90;;;;;;5030213;28;20563;-30
2022/11/15 01:47:18;;;;;;;7.00;4.30;;;2.80;99.90;;;;;;5031001;28;20156;-30
2022/11/15 01:50:06;;;;;;;7.45;4.28;;;2.60;99.90;;;;;;5026787;28;20386;-33
2022/11/15 01:52:34;;;;;;;8.40;4.65;;;2.50;99.90;;;;;;5013802;28;20029;-30
2022/11/15 01:55:25;;;;;;;3.53;2.72;;;2.30;99.90;;;;;;5011799;28;20034;-31
2022/11/15 01:57:57;;;;;;;5.97;4.13;;;2.10;99.90;;;;;;5020143;28;20088;-31
2022/11/15 02:00:23;;;;;;;5.93;3.65;;;2.00;99.90;;;;;;5012786;28;20681;-41
2022/11/15 02:02:48;;;;;;;5.97;4.60;;;2.10;99.90;;;;;;5030408;28;20041;-40
2022/11/15 02:05:14;;;;;;;6.30;4.38;;;2.30;99.90;;;;;;5028048;28;20033;-37
2022/11/15 02:07:40;;;;;;;5.75;4.47;;;2.30;99.90;;;;;;5030621;28;20037;-39
2022/11/15 02:10:17;;;;;;;6.13;4.40;;;2.30;99.90;;;;;;5025012;28;20120;-38
2022/11/15 02:12:43;;;;;;;4.95;4.45;;;2.30;99.90;;;;;;5030369;28;20067;-39
2022/11/15 02:15:10;;;;;;;7.32;4.57;;;2.50;99.90;;;;;;5024506;28;20057;-35
2022/11/15 02:17:53;;;;;;;11.63;6.10;;;2.50;99.90;;;;;;5032798;28;20031;-40
2022/11/15 02:20:33;;;;;;;3.42;3.13;;;2.50;99.90;;;;;;5022956;28;20038;-40
2022/11/15 02:23:20;;;;;;;3.95;3.20;;;2.20;99.90;;;;;;5031884;28;20029;-40
2022/11/15 02:26:26;;;;;;;20.05;4.65;;;1.90;99.90;;;;;;5029516;28;20033;-41
2022/11/15 02:29:14;;;;;;;31.15;22.52;;;1.90;99.90;;;;;;5013035;28;20041;-40
2022/11/15 02:32:00;;;;;;;22.48;16.80;;;2.00;99.90;;;;;;5031262;28;20415;-42
2022/11/15 02:34:34;;;;;;;23.80;19.27;;;2.10;99.90;;;;;;5025705;28;20033;-39
2022/11/15 02:37:11;;;;;;;26.63;17.52;;;2.20;99.90;;;;;;5028113;28;20034;-40
2022/11/15 02:39:39;;;;;;;10.90;6.82;;;2.30;99.90;;;;;;5028418;28;20104;-42
2022/11/15 02:45:04;;;;;;;13.82;7.30;;;2.30;99.90;;;;;;5029178;28;21956;-40
2022/11/15 02:47:34;;;;;;;6.90;5.18;;;2.30;99.90;;;;;;5030429;28;20024;-38
2022/11/15 02:50:06;;;;;;;10.52;6.03;;;2.10;99.90;;;;;;5028036;28;20072;-40
2022/11/15 02:52:32;;;;;;;7.35;6.15;;;2.10;99.90;;;;;;5030837;28;20474;-42
2022/11/15 02:55:01;;;;;;;9.13;5.65;;;2.20;99.90;;;;;;5026428;28;20050;-40
2022/11/15 02:58:14;;;;;;;9.63;6.03;;;2.20;99.90;;;;;;5029430;28;20029;-37
2022/11/15 03:00:53;;;;;;;7.43;5.40;;;2.20;99.90;;;;;;4944471;28;20472;-39
2022/11/15 03:03:22;;;;;;;9.73;5.50;;;2.20;99.90;;;;;;4948102;28;20118;-41
2022/11/15 03:06:18;;;;;;;7.72;5.10;;;2.20;99.90;;;;;;4994350;28;20053;-40
2022/11/15 03:09:01;;;;;;;9.73;4.75;;;2.30;99.90;;;;;;5028524;28;20068;-41
2022/11/15 03:11:32;;;;;;;6.70;5.15;;;2.30;99.90;;;;;;5028490;28;20028;-40
2022/11/15 03:14:11;;;;;;;9.45;4.88;;;2.30;99.90;;;;;;5028227;28;20021;-39
2022/11/15 03:17:00;;;;;;;6.55;5.07;;;2.40;99.90;;;;;;5029509;28;20021;-38
2022/11/15 03:19:31;;;;;;;7.13;5.05;;;2.40;99.90;;;;;;5027037;28;20036;-41
2022/11/15 03:22:00;;;;;;;7.68;5.00;;;2.40;99.90;;;;;;5030130;28;20029;-42
2022/11/15 03:24:30;;;;;;;6.60;4.38;;;2.40;99.90;;;;;;5027127;28;20730;-42
2022/11/15 03:26:59;;;;;;;6.32;4.28;;;2.40;99.90;;;;;;5029572;28;20060;-41
2022/11/15 03:29:32;;;;;;;5.25;4.15;;;2.30;99.90;;;;;;5026369;28;20033;-40
2022/11/15 03:32:03;;;;;;;5.07;3.72;;;2.30;99.90;;;;;;5026220;28;20545;-41
2022/11/15 03:34:36;;;;;;;5.95;4.07;;;2.30;99.90;;;;;;5028224;28;20059;-40
2022/11/15 03:37:02;;;;;;;5.57;3.78;;;2.20;99.90;;;;;;5027792;28;20033;-40
2022/11/15 03:39:29;;;;;;;6.25;4.05;;;2.10;99.90;;;;;;5028803;28;20029;-35
2022/11/15 03:42:26;;;;;;;5.18;3.97;;;2.00;99.90;;;;;;5028616;28;20505;-39
2022/11/15 03:45:44;;;;;;;7.20;4.38;;;2.00;99.90;;;;;;5026132;28;20029;-41
2022/11/15 03:48:15;;;;;;;5.10;3.97;;;1.90;99.90;;;;;;5010124;28;20022;-41
2022/11/15 03:50:43;;;;;;;5.13;4.63;;;2.00;99.90;;;;;;5026579;28;20044;-37
2022/11/15 03:53:09;;;;;;;4.35;3.92;;;2.00;99.90;;;;;;5028895;28;20418;-42
2022/11/15 03:55:35;;;;;;;7.30;3.30;;;2.00;99.90;;;;;;5027531;28;20048;-41
2022/11/15 03:58:02;;;;;;;6.30;4.15;;;2.10;99.90;;;;;;5030454;28;20119;-41
2022/11/15 04:00:28;;;;;;;6.38;4.32;;;2.00;99.90;;;;;;5024898;28;20109;-40
2022/11/15 04:02:53;;;;;;;5.88;4.13;;;2.00;99.90;;;;;;5027102;28;20412;-41
2022/11/15 04:05:19;;;;;;;6.43;4.10;;;2.00;99.90;;;;;;5026929;28;20037;-39
2022/11/15 04:07:45;;;;;;;6.45;3.63;;;2.00;99.90;;;;;;5029882;28;20031;-40
2022/11/15 04:10:11;;;;;;;6.70;4.00;;;2.00;99.90;;;;;;5023919;28;20109;-39
2022/11/15 04:12:42;;;;;;;5.13;4.00;;;2.00;99.90;;;;;;5030193;28;20471;-41
2022/11/15 04:15:13;;;;;;;6.80;4.40;;;2.00;99.90;;;;;;5012658;28;20026;-42
2022/11/15 04:17:40;;;;;;;5.00;4.30;;;2.00;99.90;;;;;;5030498;28;20376;-41
2022/11/15 04:26:01;;;;;;;6.60;4.25;;;2.00;99.90;;;;;;5032702;28;20586;-38
2022/11/15 04:28:27;;;;;;;4.80;3.35;;;1.90;99.90;;;;;;5031536;28;20060;-41
2022/11/15 04:30:53;;;;;;;4.22;3.83;;;1.80;99.90;;;;;;5027915;28;20467;-40
2022/11/15 04:33:18;;;;;;;5.43;3.78;;;1.70;99.90;;;;;;5011072;28;20035;-41
2022/11/15 04:37:11;;;;;;;8.10;4.65;;;1.80;99.90;;;;;;5031438;28;20387;-37
2022/11/15 04:38:30;;;;;;;53.97;17.55;;;1.80;99.90;;;;;;5029222;28;20033;-40
2022/11/15 04:40:55;;;;;;;34.28;10.75;;;1.80;99.90;;;;;;5031220;28;20032;-40
2022/11/15 04:43:21;;;;;;;49.80;15.60;;;1.70;99.90;;;;;;5010953;28;20022;-42
2022/11/15 04:45:46;;;;;;;47.88;14.52;;;1.80;99.90;;;;;;5028550;28;20171;-40
2022/11/15 04:48:12;;;;;;;8.98;5.15;;;1.80;99.90;;;;;;5031409;28;20449;-39
2022/11/15 04:50:37;;;;;;;9.98;4.75;;;1.70;99.90;;;;;;5033037;28;20037;-41
2022/11/15 04:53:03;;;;;;;3.60;2.92;;;1.60;99.90;;;;;;5025676;28;20096;-38
2022/11/15 04:55:28;;;;;;;6.88;3.60;;;1.70;99.90;;;;;;5033255;28;20024;-39
2022/11/15 04:57:59;;;;;;;5.18;3.40;;;1.70;99.90;;;;;;5030234;28;20022;-41
2022/11/15 05:00:25;;;;;;;5.15;3.40;;;1.70;99.90;;;;;;5030381;28;20690;-39
2022/11/15 05:05:39;;;;;;;11.50;5.25;;;1.50;99.90;;;;;;5029876;28;20548;-39
2022/11/15 05:08:04;;;;;;;9.27;4.45;;;1.20;99.90;;;;;;5013504;28;20037;-41
2022/11/15 05:10:30;;;;;;;6.57;4.47;;;1.20;99.90;;;;;;5031077;28;20025;-41
2022/11/15 05:12:56;;;;;;;9.43;5.05;;;1.30;99.90;;;;;;5031868;28;20449;-39
2022/11/15 05:15:21;;;;;;;6.82;4.15;;;1.30;99.90;;;;;;5028134;28;20053;-41
2022/11/15 05:17:47;;;;;;;4.88;4.18;;;1.20;99.90;;;;;;5031091;28;20032;-41
2022/11/15 05:20:13;;;;;;;5.80;3.90;;;1.30;99.90;;;;;;5013660;28;20032;-39
2022/11/15 05:22:39;;;;;;;18.50;7.50;;;1.30;99.90;;;;;;5029784;28;20033;-37
2022/11/15 05:25:05;;;;;;;31.70;9.82;;;1.20;99.90;;;;;;5031770;28;20107;-40
2022/11/15 05:27:31;;;;;;;23.35;7.57;;;1.10;99.90;;;;;;5030745;28;20037;-37
2022/11/15 05:29:56;;;;;;;16.33;6.80;;;1.10;99.90;;;;;;5013507;28;20079;-41
2022/11/15 05:32:22;;;;;;;10.30;4.30;;;1.10;99.90;;;;;;5028213;28;20427;-41
2022/11/15 05:34:47;;;;;;;6.65;4.20;;;1.00;99.90;;;;;;5033274;28;20021;-41
2022/11/15 05:37:14;;;;;;;8.30;5.03;;;0.90;99.90;;;;;;5027890;28;20501;-40
2022/11/15 05:39:39;;;;;;;8.57;4.68;;;0.90;99.90;;;;;;5027602;28;20074;-41
2022/11/15 05:42:10;;;;;;;5.00;4.15;;;0.90;99.90;;;;;;5028447;28;20025;-38
2022/11/15 05:44:38;;;;;;;7.03;3.85;;;1.00;99.90;;;;;;5032271;28;20079;-42
2022/11/15 05:47:07;;;;;;;7.53;3.33;;;1.10;99.90;;;;;;5028174;28;20026;-41
2022/11/15 05:49:36;;;;;;;27.70;6.95;;;1.10;99.90;;;;;;5030817;28;20398;-42
2022/11/15 05:52:05;;;;;;;42.15;12.65;;;1.20;99.90;;;;;;5029806;28;20398;-38
2022/11/15 05:54:31;;;;;;;19.02;7.03;;;1.30;99.90;;;;;;5029712;28;20037;-36
2022/11/15 05:56:57;;;;;;;11.23;4.22;;;1.30;99.90;;;;;;5014284;28;20533;-38
2022/11/15 05:59:23;;;;;;;15.45;5.28;;;1.40;99.90;;;;;;5029556;28;20033;-36
2022/11/15 06:01:49;;;;;;;3.55;2.72;;;1.30;99.90;;;;;;5031289;28;20030;-41
2022/11/15 06:04:15;;;;;;;4.03;3.63;;;1.20;99.90;;;;;;5027215;28;20493;-42
2022/11/15 06:06:40;;;;;;;9.80;6.15;;;0.90;99.90;;;;;;5024927;28;20075;-40
2022/11/15 06:09:06;;;;;;;8.00;4.78;;;1.00;99.90;;;;;;5032166;28;20030;-39
2022/11/15 06:11:31;;;;;;;8.32;4.20;;;0.90;99.90;;;;;;5030570;28;20025;-42
2022/11/15 06:13:57;;;;;;;15.55;5.15;;;0.90;99.90;;;;;;5028191;28;20100;-41
2022/11/15 06:16:22;;;;;;;6.65;3.47;;;1.00;99.90;;;;;;5030278;28;20440;-40
2022/11/15 06:18:48;;;;;;;6.35;3.92;;;0.90;99.90;;;;;;5029136;28;20120;-42
2022/11/15 06:21:14;;;;;;;8.98;5.38;;;0.80;99.90;;;;;;5023637;28;20037;-41
2022/11/15 06:23:39;;;;;;;7.38;4.32;;;0.80;99.90;;;;;;5023352;28;20148;-40
2022/11/15 06:26:05;;;;;;;10.65;5.63;;;0.80;99.90;;;;;;5029069;28;20050;-42
2022/11/15 06:28:32;;;;;;;9.80;4.65;;;0.80;99.90;;;;;;5028369;28;20041;-40
2022/11/15 06:31:04;;;;;;;12.80;5.63;;;0.90;99.90;;;;;;5022042;28;20108;-41
2022/11/15 06:33:30;;;;;;;9.40;5.38;;;0.90;99.90;;;;;;5021469;28;20116;-37
2022/11/15 06:35:55;;;;;;;11.90;4.18;;;0.90;99.90;;;;;;5025499;28;20055;-40
2022/11/15 06:38:21;;;;;;;8.05;4.15;;;0.80;99.90;;;;;;5027457;28;20025;-42
2022/11/15 06:40:46;;;;;;;8.20;4.25;;;0.80;99.90;;;;;;5023022;28;20075;-41
2022/11/15 06:43:12;;;;;;;4.75;3.22;;;0.90;99.90;;;;;;5026133;28;20018;-40
2022/11/15 06:45:38;;;;;;;6.43;4.13;;;1.00;99.90;;;;;;5017365;28;20029;-38
2022/11/15 06:48:04;;;;;;;9.73;4.70;;;1.00;99.90;;;;;;5026072;28;20091;-41
2022/11/15 06:50:29;;;;;;;7.53;3.85;;;0.90;99.90;;;;;;5026199;28;20051;-39
2022/11/15 06:52:59;;;;;;;4.78;3.60;;;1.00;99.90;;;;;;5024634;28;20031;-39
2022/11/15 06:55:25;;;;;;;3.40;2.67;;;1.00;99.90;;;;;;5024663;28;20112;-42
2022/11/15 06:57:52;;;;;;;6.32;4.05;;;1.10;99.90;;;;;;5027838;28;20108;-37
2022/11/15 07:00:19;;;;;;;6.32;4.25;;;1.20;99.90;;;;;;5027326;28;20061;-35
2022/11/15 07:02:45;;;;;;;4.03;3.17;;;1.20;99.90;;;;;;5005949;28;20038;-40
2022/11/15 07:05:12;;;;;;;4.95;3.55;;;1.20;99.90;;;;;;5027281;28;20133;-38
2022/11/15 07:07:37;;;;;;;4.57;3.42;;;1.20;99.90;;;;;;5027392;28;20021;-41
2022/11/15 07:10:03;;;;;;;4.30;3.85;;;1.20;99.90;;;;;;5029202;28;20540;-42
2022/11/15 07:12:29;;;;;;;5.03;3.28;;;1.20;99.90;;;;;;5025033;28;20022;-41
2022/11/15 07:14:55;;;;;;;4.10;2.97;;;1.10;99.90;;;;;;5022329;28;20040;-41
2022/11/15 07:17:20;;;;;;;6.35;4.20;;;1.10;99.90;;;;;;5022035;28;20030;-31
2022/11/15 07:19:46;;;;;;;4.78;3.40;;;1.10;99.90;;;;;;5025619;28;20026;-31
2022/11/15 07:22:11;;;;;;;5.40;4.05;;;1.10;99.90;;;;;;5028531;28;20379;-31
2022/11/15 07:24:37;;;;;;;6.00;4.18;;;1.10;99.90;;;;;;5029764;28;20049;-31
2022/11/15 07:27:02;;;;;;;11.55;4.43;;;1.10;99.90;;;;;;5027684;28;20124;-31
2022/11/15 07:29:28;;;;;;;4.93;4.13;;;1.10;99.90;;;;;;5011580;28;20037;-32
2022/11/15 07:31:54;;;;;;;9.65;5.40;;;1.30;99.90;;;;;;5024669;28;20042;-32
2022/11/15 07:34:20;;;;;;;6.43;4.47;;;1.30;99.90;;;;;;5027037;28;20146;-31
2022/11/15 07:36:46;;;;;;;7.40;4.07;;;1.30;99.90;;;;;;5022300;28;20471;-30
2022/11/15 07:39:12;;;;;;;9.35;5.38;;;1.30;99.90;;;;;;5030282;28;20057;-30
2022/11/15 07:41:38;;;;;;;7.35;5.22;;;1.40;99.90;;;;;;5024666;28;20026;-31
2022/11/15 07:44:04;;;;;;;11.65;6.18;;;1.40;99.90;;;;;;5025402;28;20033;-31
2022/11/15 07:46:30;;;;;;;15.63;7.05;;;1.40;99.90;;;;;;5027787;28;20109;-31
2022/11/15 07:48:56;;;;;;;10.25;6.15;;;1.50;99.90;;;;;;5027464;28;20053;-30
2022/11/15 07:51:22;;;;;;;8.93;6.32;;;1.60;99.90;;;;;;5029748;28;20107;-31
2022/11/15 07:53:47;;;;;;;6.93;5.57;;;1.60;99.90;;;;;;5026168;28;20454;-30
2022/11/15 07:56:13;;;;;;;21.55;5.53;;;1.60;99.90;;;;;;5024554;28;20116;-31
2022/11/15 07:58:39;;;;;;;9.80;5.95;;;1.70;99.90;;;;;;5030153;28;20025;-31
2022/11/15 08:01:06;;;;;;;6.53;4.40;;;1.70;99.90;;;;;;5026871;28;20045;-35
2022/11/15 08:03:32;;;;;;;10.45;6.70;;;1.70;99.90;;;;;;5028483;28;20108;-31
2022/11/15 08:05:58;;;;;;;8.45;6.03;;;1.70;99.90;;;;;;5027340;28;20036;-34
2022/11/15 08:08:24;;;;;;;6.15;5.35;;;1.80;99.90;;;;;;5017136;28;20029;-31
2022/11/15 08:10:49;;;;;;;6.90;5.32;;;1.90;99.90;;;;;;5032131;28;20025;-30
2022/11/15 08:13:15;;;;;;;6.75;5.22;;;1.90;99.90;;;;;;5028300;28;20033;-31
2022/11/15 08:15:41;;;;;;;6.18;5.35;;;1.90;99.90;;;;;;5028127;28;20513;-31
2022/11/15 08:18:11;;;;;;;12.27;5.63;;;2.00;99.90;;;;;;5026302;28;20367;-31
2022/11/15 08:20:37;;;;;;;7.72;6.13;;;2.10;99.90;;;;;;5028005;28;20108;-30
2022/11/15 08:23:04;;;;;;;9.40;5.60;;;2.30;99.90;;;;;;5030436;28;20609;-31
2022/11/15 08:25:31;;;;;;;7.82;5.80;;;2.40;99.90;;;;;;5026257;28;20843;-30
2022/11/15 08:27:59;;;;;;;7.80;6.07;;;2.40;99.90;;;;;;5027160;28;20158;-29
2022/11/15 08:30:25;;;;;;;9.07;6.50;;;2.50;99.90;;;;;;5026083;28;20036;-34
2022/11/15 08:32:52;;;;;;;10.20;6.05;;;2.60;99.90;;;;;;5028126;28;20441;-31
2022/11/15 08:35:18;;;;;;;7.78;5.80;;;2.70;99.90;;;;;;5025407;28;20028;-30
2022/11/15 08:37:44;;;;;;;9.80;5.60;;;2.80;99.90;;;;;;5029140;28;20030;-30
2022/11/15 08:40:10;;;;;;;7.05;6.00;;;3.00;99.90;;;;;;5026857;28;20166;-31
2022/11/15 08:42:36;;;;;;;6.32;5.22;;;3.20;99.90;;;;;;5027179;28;20124;-31
2022/11/15 08:45:02;;;;;;;9.60;6.43;;;3.40;99.90;;;;;;5026283;28;20037;-31
2022/11/15 08:47:28;;;;;;;8.45;5.88;;;3.50;99.90;;;;;;5027822;28;20033;-31
2022/11/15 08:49:54;;;;;;;7.07;5.65;;;3.80;99.90;;;;;;5025391;28;20094;-32
2022/11/15 08:52:19;;;;;;;9.38;7.18;;;3.90;99.90;;;;;;5028135;28;20481;-31
2022/11/15 08:54:45;;;;;;;11.82;6.88;;;4.10;99.90;;;;;;5027080;28;20152;-30
2022/11/15 08:57:10;;;;;;;8.77;6.40;;;4.20;99.90;;;;;;5032979;28;20544;-31
2022/11/15 08:59:37;;;;;;;8.95;6.82;;;4.40;99.90;;;;;;5030547;28;20483;-30
2022/11/15 09:02:03;;;;;;;8.73;6.03;;;4.60;99.90;;;;;;5021981;28;20022;-31
2022/11/15 09:04:29;;;;;;;11.48;6.93;;;4.80;99.90;;;;;;5024889;28;20021;-30
2022/11/15 09:06:54;;;;;;;7.82;6.25;;;4.90;99.90;;;;;;5028047;28;20021;-31
2022/11/15 09:09:20;;;;;;;14.98;7.68;;;5.10;99.90;;;;;;5033587;28;20029;-30
2022/11/15 09:11:45;;;;;;;15.98;6.53;;;5.10;99.90;;;;;;5031398;28;20029;-30
2022/11/15 09:14:14;;;;;;;13.40;6.80;;;5.20;99.90;;;;;;5032656;28;20032;-30
2022/11/15 09:16:40;;;;;;;6.68;5.97;;;5.20;99.90;;;;;;5030845;28;20032;-30
2022/11/15 09:19:06;;;;;;;10.00;5.97;;;5.30;99.90;;;;;;5031956;28;20022;-30
2022/11/15 09:21:32;;;;;;;9.60;6.53;;;5.40;99.90;;;;;;5013771;28;20029;-30
2022/11/15 09:23:58;;;;;;;11.20;5.55;;;5.50;99.90;;;;;;5033052;28;20029;-31
2022/11/15 09:26:24;;;;;;;9.75;6.10;;;5.60;99.90;;;;;;5029395;28;20045;-33
2022/11/15 09:28:49;;;;;;;8.18;6.00;;;5.80;99.90;;;;;;5031376;28;20021;-29
2022/11/15 09:31:15;;;;;;;9.88;7.00;;;5.90;99.90;;;;;;5031642;28;20034;-29
2022/11/15 09:33:44;;;;;;;9.25;6.75;;;5.90;99.90;;;;;;5029564;28;20140;-30
2022/11/15 09:36:11;;;;;;;6.30;4.80;;;6.00;99.90;;;;;;5032430;28;20033;-29
2022/11/15 09:38:37;;;;;;;7.45;5.30;;;6.00;99.90;;;;;;5034757;28;20025;-29
2022/11/15 09:41:28;;;;;;;7.05;5.28;;;6.00;99.90;;;;;;5022842;28;20044;-30
2022/11/15 09:43:57;;;;;;;7.45;5.38;;;6.10;99.90;;;;;;4999223;28;20033;-30
2022/11/15 09:46:41;;;;;;;;;;;6.20;99.90;;;;;;5028207;28;20032;-29
2022/11/15 09:49:09;;;;;;;7.57;4.57;;;6.20;99.90;;;;;;5031849;28;19947;-30
2022/11/15 09:51:46;;;;;;;8.20;4.90;;;6.30;99.90;;;;;;5019259;28;20029;-29
2022/11/15 09:54:19;;;;;;;6.68;5.57;;;6.40;99.90;;;;;;5028035;28;20029;-29
2022/11/15 09:56:45;;;;;;;7.10;5.45;;;6.50;99.90;;;;;;5032624;28;20030;-30
2022/11/15 09:59:23;;;;;;;5.78;4.82;;;6.60;99.90;;;;;;5009036;28;20029;-31
2022/11/15 10:02:09;;;;;;;15.27;6.10;;;6.70;99.90;;;;;;5030644;28;20573;-29
2022/11/15 10:04:38;;;;;;;10.32;5.22;;;6.90;99.90;;;;;;5027997;28;20079;-32
2022/11/15 10:07:25;;;;;;;8.07;5.13;;;7.10;99.90;;;;;;5026609;28;20612;-30
2022/11/15 10:10:11;;;;;;;7.38;5.50;;;7.20;99.90;;;;;;5027891;28;20721;-31
2022/11/15 10:12:48;;;;;;;9.73;5.85;;;7.20;99.90;;;;;;5026462;28;20032;-29
2022/11/15 10:15:15;;;;;;;8.25;5.88;;;7.20;99.90;;;;;;5028208;28;20037;-30
2022/11/15 10:18:07;;;;;;;5.88;4.78;;;7.30;99.90;;;;;;5028935;28;20037;-30
2022/11/15 10:20:45;;;;;;;7.53;5.55;;;7.40;99.90;;;;;;5021367;28;20762;-29
2022/11/15 10:23:15;;;;;;;7.22;6.25;;;7.50;99.90;;;;;;5029293;28;20053;-31
2022/11/15 10:25:41;;;;;;;10.43;6.57;;;7.60;99.90;;;;;;5011141;28;20061;-31
2022/11/15 10:28:11;;;;;;;10.80;7.03;;;7.70;99.90;;;;;;5031580;28;20386;-30
2022/11/15 10:30:41;;;;;;;13.90;6.63;;;7.70;99.90;;;;;;5031749;28;20024;-30
2022/11/15 10:33:24;;;;;;;5.95;4.22;;;7.70;99.90;;;;;;5028469;28;20025;-29
2022/11/15 10:36:08;;;;;;;7.25;4.32;;;7.80;99.90;;;;;;5028795;28;20118;-30
2022/11/15 10:39:02;;;;;;;6.20;4.22;;;7.90;99.90;;;;;;5028240;28;20075;-30
2022/11/15 10:41:31;;;;;;;5.07;4.38;;;8.30;99.90;;;;;;5025913;28;20045;-30
2022/11/15 10:44:17;;;;;;;7.75;5.10;;;8.40;99.90;;;;;;5030132;28;20586;-33
2022/11/15 10:46:47;;;;;;;6.18;4.45;;;8.40;99.90;;;;;;5030200;28;20114;-30
2022/11/15 10:49:30;;;;;;;4.47;4.07;;;8.50;99.90;;;;;;5028572;28;20043;-31
2022/11/15 10:52:02;;;;;;;4.47;3.95;;;8.50;99.90;;;;;;5028188;28;20451;-30
2022/11/15 10:54:29;;;;;;;6.70;4.85;;;8.50;99.90;;;;;;5031229;28;20048;-30
2022/11/15 10:56:58;;;;;;;9.15;5.00;;;8.60;99.90;;;;;;5026717;28;20044;-29
2022/11/15 10:59:28;;;;;;;8.73;4.88;;;8.80;99.90;;;;;;5032946;28;20543;-29
2022/11/15 11:01:54;;;;;;;6.50;4.47;;;8.90;99.90;;;;;;5029273;28;20069;-29
2022/11/15 11:04:20;;;;;;;6.50;3.97;;;9.00;99.90;;;;;;5028464;28;20112;-30
2022/11/15 11:06:58;;;;;;;8.40;5.75;;;8.90;99.90;;;;;;5027629;28;20104;-30
2022/11/15 11:09:30;;;;;;;6.80;5.20;;;9.00;99.90;;;;;;5026780;28;20117;-29
2022/11/15 11:11:56;;;;;;;8.68;5.18;;;9.10;99.90;;;;;;5021261;28;20234;-31
2022/11/15 11:14:23;;;;;;;7.85;5.75;;;9.20;99.90;;;;;;5014349;28;20029;-31
2022/11/15 11:17:12;;;;;;;5.53;4.50;;;9.30;99.90;;;;;;5026119;28;20033;-30
2022/11/15 11:19:56;;;;;;;6.28;4.97;;;9.40;99.90;;;;;;5026049;28;20025;-30
2022/11/15 11:22:48;;;;;;;8.48;4.90;;;9.50;99.90;;;;;;5027702;28;20033;-29
2022/11/15 11:25:32;;;;;;;6.90;4.95;;;9.60;99.90;;;;;;5020020;28;20038;-30
2022/11/15 11:28:29;;;;;;;7.28;4.68;;;9.80;99.90;;;;;;5028380;28;20482;-30
2022/11/15 11:31:19;;;;;;;5.00;3.97;;;9.80;99.90;;;;;;5028731;28;20072;-32
2022/11/15 11:34:20;;;;;;;6.25;4.25;;;9.90;99.90;;;;;;5027073;28;20033;-28
2022/11/15 11:37:01;;;;;;;4.82;3.67;;;9.90;99.90;;;;;;5005974;28;20048;-29
2022/11/15 11:40:04;;;;;;;4.00;3.47;;;9.90;99.90;;;;;;5031407;28;20087;-30
2022/11/15 11:42:39;;;;;;;5.10;3.80;;;10.00;99.90;;;;;;5028030;28;20502;-30
2022/11/15 11:45:10;;;;;;;4.13;3.17;;;10.10;99.90;;;;;;5031020;28;20414;-32
2022/11/15 11:47:44;;;;;;;4.57;3.42;;;10.10;99.90;;;;;;5025511;28;20103;-31
2022/11/15 11:50:23;;;;;;;3.83;3.30;;;10.30;99.90;;;;;;5024173;28;20036;-34
2022/11/15 11:53:04;;;;;;;5.70;4.07;;;10.30;99.90;;;;;;4994398;28;20479;-30
2022/11/15 11:55:38;;;;;;;4.80;3.53;;;10.30;99.90;;;;;;5022317;28;20025;-30
2022/11/15 11:58:34;;;;;;;4.53;3.95;;;10.30;99.90;;;;;;5008215;28;20398;-33
2022/11/15 12:01:25;;;;;;;7.18;4.43;;;10.30;99.90;;;;;;5027848;28;20061;-29
2022/11/15 12:04:05;;;;;;;5.20;3.78;;;10.20;99.90;;;;;;5026748;28;20053;-31
2022/11/15 12:06:42;;;;;;;6.10;3.95;;;10.30;99.90;;;;;;5028326;28;20389;-28
2022/11/15 12:09:20;;;;;;;4.63;4.15;;;10.40;99.90;;;;;;5029003;28;20045;-29
2022/11/15 12:11:52;;;;;;;8.60;4.32;;;10.30;99.90;;;;;;5027907;28;20372;-29
2022/11/15 12:14:27;;;;;;;6.15;4.10;;;10.30;99.90;;;;;;5029830;28;20033;-32
2022/11/15 12:16:54;;;;;;;4.40;4.00;;;10.40;99.90;;;;;;5028075;28;20025;-29
2022/11/15 12:19:20;;;;;;;6.43;4.32;;;10.40;99.90;;;;;;5009972;28;20017;-29
2022/11/15 12:21:57;;;;;;;5.72;4.22;;;10.40;99.90;;;;;;5030150;28;20043;-29
2022/11/15 12:24:40;;;;;;;5.05;3.63;;;10.50;99.90;;;;;;5026612;28;20037;-28
2022/11/15 12:27:13;;;;;;;7.10;3.50;;;10.50;99.90;;;;;;5029485;28;20598;-29
2022/11/15 12:29:44;;;;;;;6.60;4.78;;;10.60;99.90;;;;;;5029007;28;20026;-30
2022/11/15 12:32:32;;;;;;;5.75;4.35;;;10.70;99.90;;;;;;5024388;28;20048;-30
2022/11/15 12:35:00;;;;;;;7.28;4.72;;;10.70;99.90;;;;;;5026166;28;20076;-30
2022/11/15 12:37:37;;;;;;;6.10;3.92;;;10.80;99.90;;;;;;5030990;28;20033;-29
2022/11/15 12:40:09;;;;;;;7.10;4.73;;;10.80;99.90;;;;;;5027034;28;20033;-29
2022/11/15 12:42:57;;;;;;;6.10;4.38;;;10.80;99.90;;;;;;5028292;28;20033;-30
2022/11/15 12:45:35;;;;;;;6.67;4.07;;;10.80;99.90;;;;;;5030749;28;20025;-29
2022/11/15 12:48:15;;;;;;;5.90;4.05;;;10.90;99.90;;;;;;5030964;28;20049;-29
2022/11/15 12:50:50;;;;;;;7.80;4.43;;;10.90;99.90;;;;;;5025974;28;20044;-32
2022/11/15 12:53:27;;;;;;;7.57;4.80;;;10.90;99.90;;;;;;5026764;28;20506;-32
2022/11/15 12:56:17;;;;;;;7.15;5.07;;;10.90;99.90;;;;;;5030556;28;20108;-30
2022/11/15 12:58:52;;;;;;;6.85;5.00;;;10.90;99.90;;;;;;5028797;28;20120;-33
2022/11/15 13:01:30;;;;;;;6.72;4.88;;;10.90;99.90;;;;;;5027992;28;20033;-29
2022/11/15 13:04:15;;;;;;;7.80;4.60;;;10.80;99.90;;;;;;5031957;28;20049;-31
2022/11/15 13:06:49;;;;;;;5.57;4.55;;;10.80;99.90;;;;;;5030445;28;20115;-29
2022/11/15 13:09:33;;;;;;;4.93;4.43;;;10.80;99.90;;;;;;5027649;28;20496;-29
2022/11/15 13:12:01;;;;;;;8.00;4.55;;;10.90;99.90;;;;;;5029593;28;20542;-30
2022/11/15 13:14:49;;;;;;;6.18;4.82;;;10.90;99.90;;;;;;5031650;28;20032;-31
2022/11/15 13:17:35;;;;;;;5.57;4.43;;;10.90;99.90;;;;;;5027556;28;20025;-31
2022/11/15 13:20:07;;;;;;;5.47;4.25;;;10.90;99.90;;;;;;5028659;28;20052;-32
2022/11/15 13:23:08;;;;;;;7.35;4.57;;;10.90;99.90;;;;;;5032094;28;20711;-31
2022/11/15 13:25:39;;;;;;;6.55;4.38;;;10.90;99.90;;;;;;5030641;28;20041;-30